createdAt,value
2018-03-03T00:02:01.417Z,187.47
2018-03-03T00:04:29.752Z,189.02
2018-03-03T00:06:58.092Z,178.73
2018-03-03T00:09:26.637Z,170.50
2018-03-03T00:11:54.972Z,185.10
2018-03-03T00:14:23.337Z,193.68
2018-03-03T00:16:51.668Z,184.05
2018-03-03T00:19:20.380Z,208.82
2018-03-03T00:21:49.491Z,189.55
2018-03-03T00:24:18.364Z,199.73
2018-03-03T00:26:46.717Z,209.43
2018-03-03T00:29:15.049Z,199.75
2018-03-03T00:31:43.456Z,218.10
2018-03-03T00:34:11.783Z,190.65
2018-03-03T00:36:40.773Z,196.57
2018-03-03T00:39:09.107Z,201.57
2018-03-03T00:41:37.455Z,206.50
2018-03-03T00:44:05.807Z,205.15
2018-03-03T00:46:34.140Z,226.23
2018-03-03T00:49:02.501Z,222.10
2018-03-03T00:51:31.409Z,229.50
2018-03-03T00:53:59.793Z,191.77
2018-03-03T00:56:28.119Z,237.80
2018-03-03T00:58:57.207Z,203.18
2018-03-03T01:01:26.324Z,233.23
2018-03-03T01:03:55.419Z,205.43
2018-03-03T01:06:24.552Z,192.13
2018-03-03T01:08:53.002Z,238.87
2018-03-03T01:11:21.343Z,212.45
2018-03-03T01:13:49.892Z,225.77
2018-03-03T01:16:18.224Z,222.30
2018-03-03T01:18:47.396Z,249.12
2018-03-03T01:21:15.834Z,249.43
2018-03-03T01:23:44.173Z,258.92
2018-03-03T01:26:12.520Z,248.48
2018-03-03T01:28:40.992Z,258.02
2018-03-03T01:31:09.799Z,249.00
2018-03-03T01:33:38.125Z,237.57
2018-03-03T01:36:07.115Z,235.40
2018-03-03T01:38:35.469Z,215.93
2018-03-03T01:41:03.942Z,242.62
2018-03-03T01:43:32.350Z,249.70
2018-03-03T01:46:01.116Z,223.13
2018-03-03T01:48:29.457Z,256.63
2018-03-03T01:50:57.805Z,238.37
2018-03-03T01:53:26.213Z,239.00
2018-03-03T01:55:54.550Z,208.32
2018-03-03T01:58:23.752Z,220.12
2018-03-03T02:00:52.088Z,222.85
2018-03-03T02:03:20.408Z,222.12
2018-03-03T02:05:48.768Z,247.90
2018-03-03T02:08:17.092Z,229.00
2018-03-03T02:10:45.452Z,263.15
2018-03-03T02:13:13.772Z,228.20
2018-03-03T02:15:42.271Z,258.50
2018-03-03T02:18:10.623Z,308.08
2018-03-03T02:20:38.955Z,283.13
2018-03-03T02:23:08.096Z,297.92
2018-03-03T02:25:36.429Z,292.35
2018-03-03T02:28:04.765Z,271.02
2018-03-03T02:30:33.141Z,300.17
2018-03-03T02:33:02.442Z,319.40
2018-03-03T02:35:30.796Z,338.45
2018-03-03T02:37:59.189Z,300.30
2018-03-03T02:40:27.534Z,298.40
2018-03-03T02:42:55.867Z,340.80
2018-03-03T02:45:24.229Z,283.98
2018-03-03T02:47:52.556Z,254.87
2018-03-03T02:50:20.903Z,317.70
2018-03-03T02:52:49.248Z,270.08
2018-03-03T02:55:17.573Z,328.48
2018-03-03T02:57:45.929Z,303.88
2018-03-03T03:00:14.277Z,311.02
2018-03-03T03:02:42.711Z,301.67
2018-03-03T03:05:11.851Z,220.68
2018-03-03T03:07:40.180Z,258.08
2018-03-03T03:10:08.523Z,246.75
2018-03-03T03:12:36.852Z,262.55
2018-03-03T03:15:05.978Z,282.30
2018-03-03T03:17:34.516Z,263.92
2018-03-03T03:20:02.845Z,293.45
2018-03-03T03:22:31.172Z,301.60
2018-03-03T03:25:02.427Z,292.58
2018-03-03T03:27:31.057Z,291.95
2018-03-03T03:29:59.801Z,289.25
2018-03-03T03:32:28.156Z,274.10
2018-03-03T03:34:56.539Z,316.55
2018-03-03T03:37:24.880Z,323.35
2018-03-03T03:39:53.351Z,345.85
2018-03-03T03:42:22.062Z,358.77
2018-03-03T03:44:50.424Z,344.92
2018-03-03T03:47:18.801Z,363.17
2018-03-03T03:49:47.132Z,325.20
2018-03-03T03:52:16.490Z,340.87
2018-03-03T03:54:44.913Z,377.67
2018-03-03T03:57:13.256Z,336.08
2018-03-03T03:59:41.583Z,369.77
2018-03-03T04:02:13.943Z,383.83
2018-03-03T04:04:42.313Z,375.77
2018-03-03T04:07:11.413Z,367.58
2018-03-03T04:09:40.256Z,383.10
2018-03-03T04:12:08.585Z,378.95
2018-03-03T04:14:37.673Z,406.90
2018-03-03T04:17:06.243Z,375.87
2018-03-03T04:19:34.593Z,385.73
2018-03-03T04:22:02.920Z,423.52
2018-03-03T04:24:32.059Z,416.40
2018-03-03T04:27:01.152Z,434.02
2018-03-03T04:29:29.487Z,435.55
2018-03-03T04:31:57.844Z,435.65
2018-03-03T04:34:26.177Z,471.17
2018-03-03T04:36:54.551Z,461.40
2018-03-03T04:39:22.873Z,472.00
2018-03-03T04:41:51.192Z,445.48
2018-03-03T04:44:20.381Z,451.95
2018-03-03T04:46:48.724Z,445.95
2018-03-03T04:49:17.100Z,433.30
2018-03-03T04:51:45.431Z,437.90
2018-03-03T04:54:13.768Z,448.98
2018-03-03T04:56:42.224Z,448.23
2018-03-03T04:59:26.348Z,454.35
2018-03-03T05:02:00.052Z,443.13
2018-03-03T05:04:46.924Z,452.73
2018-03-03T05:20:48.376Z,339.73
2018-03-03T05:23:21.072Z,345.08
2018-03-03T05:39:20.944Z,289.52
2018-03-03T05:55:23.604Z,320.27
2018-03-03T06:11:24.375Z,322.65
2018-03-03T06:13:52.745Z,335.60
2018-03-03T06:16:21.488Z,323.85
2018-03-03T06:18:49.888Z,394.45
2018-03-03T06:21:18.231Z,365.58
2018-03-03T06:23:46.599Z,363.15
2018-03-03T06:26:14.941Z,392.60
2018-03-03T06:28:43.295Z,379.40
2018-03-03T06:31:11.633Z,389.70
2018-03-03T06:33:40.000Z,375.30
2018-03-03T06:36:08.320Z,373.42
2018-03-03T06:38:36.648Z,374.05
2018-03-03T06:41:05.000Z,320.80
2018-03-03T06:43:33.395Z,323.27
2018-03-03T06:46:01.761Z,300.42
2018-03-03T06:48:30.399Z,318.50
2018-03-03T06:50:58.719Z,309.17
2018-03-03T06:53:27.104Z,312.20
2018-03-03T06:55:56.196Z,273.15
2018-03-03T06:58:25.284Z,268.52
2018-03-03T07:00:54.083Z,276.30
2018-03-03T07:03:22.428Z,232.52
2018-03-03T07:05:50.758Z,205.43
2018-03-03T07:08:19.124Z,183.18
2018-03-03T07:10:47.451Z,178.80
2018-03-03T07:13:15.792Z,177.43
2018-03-03T07:15:44.151Z,164.75
2018-03-03T07:18:12.827Z,156.93
2018-03-03T07:20:41.204Z,139.77
2018-03-03T07:23:09.541Z,136.70
2018-03-03T07:25:37.905Z,150.57
2018-03-03T07:28:06.232Z,147.50
2018-03-03T07:30:35.211Z,147.62
2018-03-03T07:33:03.536Z,140.52
2018-03-03T07:35:31.916Z,152.20
2018-03-03T07:38:00.249Z,142.43
2018-03-03T07:40:29.052Z,126.10
2018-03-03T07:42:57.383Z,135.95
2018-03-03T07:45:25.751Z,126.75
2018-03-03T07:47:54.140Z,118.97
2018-03-03T07:50:22.468Z,118.95
2018-03-03T07:52:51.108Z,103.93
2018-03-03T07:55:19.480Z,111.03
2018-03-03T07:57:47.796Z,109.63
2018-03-03T08:00:16.113Z,105.57
2018-03-03T08:02:44.571Z,98.57
2018-03-03T08:05:12.880Z,103.37
2018-03-03T08:07:41.303Z,115.93
2018-03-03T08:10:09.612Z,101.37
2018-03-03T08:12:37.418Z,94.97
2018-03-03T08:15:05.729Z,96.40
2018-03-03T08:17:34.049Z,118.57
2018-03-03T08:20:02.409Z,99.50
2018-03-03T08:22:31.289Z,104.90
2018-03-03T08:24:59.628Z,89.07
2018-03-03T08:27:28.694Z,100.77
2018-03-03T08:29:57.017Z,98.23
2018-03-03T08:32:25.328Z,95.97
2018-03-03T08:34:53.684Z,113.10
2018-03-03T08:37:22.000Z,108.90
2018-03-03T08:39:50.869Z,98.20
2018-03-03T08:42:19.237Z,102.23
2018-03-03T08:44:48.295Z,101.10
2018-03-03T08:47:16.612Z,105.50
2018-03-03T08:49:45.357Z,97.93
2018-03-03T08:52:13.671Z,98.27
2018-03-03T08:54:41.996Z,99.73
2018-03-03T08:57:10.821Z,99.43
2018-03-03T08:59:39.920Z,109.63
2018-03-03T09:02:08.228Z,109.83
2018-03-03T09:04:36.644Z,99.03
2018-03-03T09:07:05.705Z,96.63
2018-03-03T09:09:34.279Z,115.23
2018-03-03T09:12:02.592Z,108.93
2018-03-03T09:14:32.467Z,105.97
2018-03-03T09:17:00.905Z,110.53
2018-03-03T09:19:29.223Z,108.20
2018-03-03T09:21:57.552Z,93.60
2018-03-03T09:24:25.865Z,89.33
2018-03-03T09:26:54.688Z,86.83
2018-03-03T09:29:23.005Z,77.47
2018-03-03T09:31:51.311Z,91.53
2018-03-03T09:34:19.653Z,80.83
2018-03-03T09:36:47.972Z,82.47
2018-03-03T09:39:16.636Z,73.90
2018-03-03T09:41:44.958Z,79.43
2018-03-03T09:44:13.280Z,84.23
2018-03-03T09:46:41.629Z,75.47
2018-03-03T09:49:10.732Z,80.67
2018-03-03T09:51:39.072Z,82.30
2018-03-03T09:54:07.396Z,67.60
2018-03-03T09:56:35.776Z,64.07
2018-03-03T09:59:04.087Z,73.10
2018-03-03T10:01:32.417Z,68.87
2018-03-03T10:04:00.767Z,62.77
2018-03-03T10:06:29.084Z,69.57
2018-03-03T10:08:57.400Z,61.40
2018-03-03T10:11:25.848Z,59.97
2018-03-03T10:13:54.572Z,62.40
2018-03-03T10:16:23.512Z,64.47
2018-03-03T10:18:51.821Z,61.97
2018-03-03T10:21:20.849Z,54.73
2018-03-03T10:23:49.279Z,59.57
2018-03-03T10:26:18.234Z,56.03
2018-03-03T10:28:47.320Z,58.97
2018-03-03T10:31:15.780Z,54.40
2018-03-03T10:33:44.692Z,59.43
2018-03-03T10:36:13.049Z,57.17
2018-03-03T10:38:41.367Z,62.20
2018-03-03T10:41:10.520Z,55.47
2018-03-03T10:43:38.853Z,59.00
2018-03-03T10:46:07.543Z,51.40
2018-03-03T10:48:35.876Z,55.80
2018-03-03T10:51:04.961Z,52.07
2018-03-03T10:53:33.281Z,52.97
2018-03-03T10:56:02.460Z,51.47
2018-03-03T10:58:30.818Z,62.17
2018-03-03T11:01:00.114Z,55.73
2018-03-03T11:03:28.503Z,50.43
2018-03-03T11:05:56.828Z,52.57
2018-03-03T11:08:26.238Z,50.40
2018-03-03T11:10:56.224Z,56.83
2018-03-03T11:13:24.554Z,50.80
2018-03-03T11:15:52.904Z,47.60
2018-03-03T11:18:21.353Z,50.27
2018-03-03T11:20:49.495Z,55.00
2018-03-03T11:23:17.843Z,57.20
2018-03-03T11:25:46.165Z,54.03
2018-03-03T11:28:14.528Z,53.93
2018-03-03T11:30:42.844Z,58.43
2018-03-03T11:33:11.728Z,48.73
2018-03-03T11:35:40.083Z,37.50
2018-03-03T11:38:08.396Z,52.10
2018-03-03T11:40:37.677Z,47.23
2018-03-03T11:43:05.960Z,28.13
2018-03-03T11:45:34.460Z,33.63
2018-03-03T11:48:03.673Z,26.33
2018-03-03T11:50:32.004Z,20.87
2018-03-03T11:53:01.013Z,23.33
2018-03-03T11:55:29.664Z,22.07
2018-03-03T11:57:58.018Z,22.30
2018-03-03T12:00:26.397Z,23.07
2018-03-03T12:02:54.656Z,24.43
2018-03-03T12:05:24.391Z,21.70
2018-03-03T12:07:52.707Z,28.47
2018-03-03T12:10:21.092Z,23.27
2018-03-03T12:12:49.775Z,23.77
2018-03-03T12:15:17.896Z,25.57
2018-03-03T12:17:46.191Z,25.83
2018-03-03T12:20:16.080Z,25.00
2018-03-03T12:22:44.896Z,28.90
2018-03-03T12:25:13.785Z,28.83
2018-03-03T12:27:42.374Z,41.30
2018-03-03T12:30:11.189Z,26.80
2018-03-03T12:32:39.529Z,27.73
2018-03-03T12:35:07.988Z,27.20
2018-03-03T12:37:37.078Z,24.23
2018-03-03T12:40:06.796Z,22.23
2018-03-03T12:42:35.949Z,26.80
2018-03-03T12:45:04.916Z,35.10
2018-03-03T12:47:33.505Z,33.33
2018-03-03T12:50:02.140Z,30.23
2018-03-03T12:52:30.535Z,32.60
2018-03-03T12:54:58.896Z,25.43
2018-03-03T12:57:27.273Z,30.03
2018-03-03T12:59:55.595Z,31.20
2018-03-03T13:02:24.438Z,25.50
2018-03-03T13:04:52.765Z,22.23
2018-03-03T13:07:21.072Z,20.77
2018-03-03T13:09:49.563Z,23.67
2018-03-03T13:12:17.936Z,15.90
2018-03-03T13:14:46.308Z,22.80
2018-03-03T13:17:15.350Z,23.57
2018-03-03T13:19:43.716Z,21.57
2018-03-03T13:22:12.209Z,21.93
2018-03-03T13:24:40.488Z,19.63
2018-03-03T13:27:08.627Z,18.07
2018-03-03T13:29:36.932Z,19.17
2018-03-03T13:32:05.271Z,21.17
2018-03-03T13:34:33.615Z,19.03
2018-03-03T13:37:02.140Z,20.00
2018-03-03T13:39:30.551Z,16.03
2018-03-03T13:41:58.911Z,22.40
2018-03-03T13:44:27.036Z,18.80
2018-03-03T13:46:55.353Z,19.20
2018-03-03T13:49:23.664Z,20.43
2018-03-03T13:51:52.032Z,20.97
2018-03-03T13:54:20.539Z,23.77
2018-03-03T13:56:49.078Z,22.57
2018-03-03T13:59:17.941Z,14.43
2018-03-03T14:01:47.546Z,17.37
2018-03-03T14:04:16.078Z,15.13
2018-03-03T14:06:44.551Z,19.57
2018-03-03T14:09:12.939Z,15.17
2018-03-03T14:11:41.556Z,19.40
2018-03-03T14:14:10.197Z,18.73
2018-03-03T14:16:38.740Z,16.27
2018-03-03T14:19:08.382Z,16.93
2018-03-03T14:21:37.038Z,15.07
2018-03-03T14:24:05.494Z,17.90
2018-03-03T14:26:34.104Z,12.13
2018-03-03T14:29:04.352Z,36.00
2018-03-03T14:31:33.951Z,19.37
2018-03-03T14:34:03.341Z,22.03
2018-03-03T14:36:32.361Z,14.90
2018-03-03T14:39:01.246Z,16.37
2018-03-03T14:41:30.500Z,16.50
2018-03-03T14:43:59.666Z,21.27
2018-03-03T14:46:28.262Z,20.53
2018-03-03T14:48:57.594Z,13.53
2018-03-03T14:51:26.671Z,23.57
2018-03-03T14:53:55.157Z,18.03
2018-03-03T14:56:23.912Z,20.53
2018-03-03T14:58:52.994Z,14.20
2018-03-03T15:01:22.231Z,13.27
2018-03-03T15:03:51.237Z,11.53
2018-03-03T15:06:20.857Z,13.23
2018-03-03T15:08:51.168Z,16.10
2018-03-03T15:11:21.896Z,8.70
2018-03-03T15:13:51.709Z,18.53
2018-03-03T15:16:21.730Z,12.77
2018-03-03T15:18:50.457Z,19.50
2018-03-03T15:21:19.037Z,11.97
2018-03-03T15:23:47.869Z,10.30
2018-03-03T15:26:18.106Z,7.30
2018-03-03T15:28:47.019Z,14.40
2018-03-03T15:31:16.303Z,9.73
2018-03-03T15:33:44.779Z,12.77
2018-03-03T15:36:12.952Z,16.73
2018-03-03T15:38:41.251Z,14.97
2018-03-03T15:41:09.607Z,16.60
2018-03-03T15:43:37.916Z,12.83
2018-03-03T15:46:07.003Z,10.90
2018-03-03T15:48:36.020Z,19.80
2018-03-03T15:51:04.336Z,18.20
2018-03-03T15:53:32.651Z,21.70
2018-03-03T15:56:01.012Z,13.50
2018-03-03T15:58:30.508Z,18.40
2018-03-03T16:00:58.908Z,17.97
2018-03-03T16:03:27.981Z,14.17
2018-03-03T16:05:56.720Z,21.00
2018-03-03T16:08:25.400Z,19.63
2018-03-03T16:10:53.704Z,19.67
2018-03-03T16:13:22.789Z,24.73
2018-03-03T16:15:53.625Z,17.07
2018-03-03T16:18:21.948Z,19.20
2018-03-03T16:20:50.291Z,21.40
2018-03-03T16:23:18.437Z,18.80
2018-03-03T16:25:46.819Z,18.27
2018-03-03T16:28:15.181Z,16.20
2018-03-03T16:30:44.058Z,22.60
2018-03-03T16:33:12.644Z,15.40
2018-03-03T16:35:41.464Z,22.90
2018-03-03T16:38:09.808Z,24.23
2018-03-03T16:40:38.112Z,20.90
2018-03-03T16:43:06.419Z,22.10
2018-03-03T16:45:35.287Z,27.17
2018-03-03T16:48:04.373Z,21.57
2018-03-03T16:50:32.814Z,17.43
2018-03-03T16:53:01.117Z,17.07
2018-03-03T16:55:29.931Z,20.27
2018-03-03T16:57:59.127Z,33.20
2018-03-03T17:00:33.259Z,20.50
2018-03-03T17:03:01.787Z,17.47
2018-03-03T17:05:30.620Z,19.60
2018-03-03T17:07:59.104Z,19.47
2018-03-03T17:10:27.458Z,14.20
2018-03-03T17:12:55.768Z,22.80
2018-03-03T17:15:25.575Z,15.40
2018-03-03T17:17:53.941Z,15.90
2018-03-03T17:20:22.268Z,21.30
2018-03-03T17:22:50.576Z,20.53
2018-03-03T17:25:19.335Z,18.60
2018-03-03T17:27:47.652Z,20.97
2018-03-03T17:30:15.973Z,20.27
2018-03-03T17:32:44.307Z,19.33
2018-03-03T17:35:13.152Z,16.47
2018-03-03T17:37:41.742Z,15.17
2018-03-03T17:40:10.059Z,21.00
2018-03-03T17:42:38.746Z,20.30
2018-03-03T17:45:07.280Z,15.57
2018-03-03T17:47:35.727Z,14.33
2018-03-03T17:50:04.853Z,16.97
2018-03-03T17:52:33.237Z,29.43
2018-03-03T17:55:01.709Z,20.03
2018-03-03T17:57:30.077Z,25.83
2018-03-03T17:59:58.764Z,40.97
2018-03-03T18:02:27.621Z,28.83
2018-03-03T18:04:56.650Z,24.50
2018-03-03T18:07:25.463Z,30.97
2018-03-03T18:09:54.199Z,24.80
2018-03-03T18:12:22.513Z,23.40
2018-03-03T18:14:50.926Z,23.90
2018-03-03T18:17:19.252Z,17.53
2018-03-03T18:19:47.904Z,24.70
2018-03-03T18:22:16.279Z,31.50
2018-03-03T18:24:45.326Z,34.43
2018-03-03T18:27:13.676Z,28.27
2018-03-03T18:29:42.662Z,28.90
2018-03-03T18:32:11.348Z,25.90
2018-03-03T18:34:39.757Z,23.43
2018-03-03T18:37:08.112Z,30.33
2018-03-03T18:39:37.458Z,34.73
2018-03-03T18:42:05.763Z,35.07
2018-03-03T18:44:34.812Z,31.10
2018-03-03T18:47:03.149Z,36.13
2018-03-03T18:49:31.457Z,37.50
2018-03-03T18:52:00.754Z,36.30
2018-03-03T18:54:29.602Z,31.77
2018-03-03T18:56:58.000Z,29.17
2018-03-03T18:59:26.312Z,35.80
2018-03-03T19:01:54.616Z,32.67
2018-03-03T19:04:22.972Z,27.20
2018-03-03T19:06:51.285Z,22.03
2018-03-03T19:09:19.592Z,23.60
2018-03-03T19:11:47.936Z,30.80
2018-03-03T19:14:16.008Z,26.07
2018-03-03T19:16:44.317Z,42.63
2018-03-03T19:19:12.577Z,40.63
2018-03-03T19:21:40.964Z,33.53
2018-03-03T19:24:09.216Z,38.13
2018-03-03T19:26:38.148Z,46.50
2018-03-03T19:29:06.280Z,49.90
2018-03-03T19:31:34.762Z,45.83
2018-03-03T19:34:03.088Z,41.57
2018-03-03T19:36:31.399Z,38.50
2018-03-03T19:38:59.836Z,50.67
2018-03-03T19:41:28.913Z,46.70
2018-03-03T19:43:57.173Z,50.20
2018-03-03T19:46:26.155Z,44.87
2018-03-03T19:48:54.811Z,58.73
2018-03-03T19:51:23.503Z,51.03
2018-03-03T19:53:52.032Z,49.37
2018-03-03T19:56:20.353Z,65.27
2018-03-03T19:58:48.924Z,54.90
2018-03-03T20:01:18.176Z,76.07
2018-03-03T20:03:47.044Z,57.57
2018-03-03T20:06:16.303Z,73.13
2018-03-03T20:08:44.661Z,69.23
2018-03-03T20:11:13.095Z,59.50
2018-03-03T20:13:41.524Z,63.90
2018-03-03T20:16:09.846Z,55.83
2018-03-03T20:18:38.198Z,60.20
2018-03-03T20:21:06.656Z,57.27
2018-03-03T20:23:34.993Z,56.50
2018-03-03T20:26:03.321Z,60.17
2018-03-03T20:28:32.336Z,59.60
2018-03-03T20:31:00.657Z,72.73
2018-03-03T20:33:28.988Z,68.80
2018-03-03T20:35:57.361Z,71.87
2018-03-03T20:38:26.358Z,79.63
2018-03-03T20:40:54.674Z,83.50
2018-03-03T20:43:23.060Z,72.70
2018-03-03T20:45:51.360Z,80.73
2018-03-03T20:48:19.676Z,79.93
2018-03-03T20:50:48.860Z,80.37
2018-03-03T20:53:17.824Z,90.70
2018-03-03T20:55:46.131Z,96.17
2018-03-03T20:58:14.444Z,86.03
2018-03-03T21:00:43.333Z,104.87
2018-03-03T21:03:13.132Z,81.23
2018-03-03T21:05:42.489Z,97.23
2018-03-03T21:08:11.122Z,86.30
2018-03-03T21:10:39.880Z,110.90
2018-03-03T21:13:08.189Z,113.30
2018-03-03T21:15:36.540Z,112.93
2018-03-03T21:18:05.445Z,98.63
2018-03-03T21:20:34.436Z,100.90
2018-03-03T21:23:02.744Z,99.20
2018-03-03T21:25:31.184Z,102.17
2018-03-03T21:27:59.516Z,89.77
2018-03-03T21:30:27.959Z,94.43
2018-03-03T21:32:56.324Z,103.00
2018-03-03T21:35:24.772Z,112.50
2018-03-03T21:37:53.885Z,107.00
2018-03-03T21:40:22.872Z,113.70
2018-03-03T21:42:51.193Z,105.80
2018-03-03T21:45:19.948Z,91.03
2018-03-03T21:47:48.252Z,86.33
2018-03-03T21:50:17.639Z,64.30
2018-03-03T21:52:46.224Z,66.80
2018-03-03T21:55:15.131Z,73.07
2018-03-03T21:57:44.416Z,71.47
2018-03-03T22:00:13.252Z,71.07
2018-03-03T22:02:42.502Z,91.87
2018-03-03T22:05:11.309Z,86.23
2018-03-03T22:07:40.396Z,94.30
2018-03-03T22:10:08.973Z,103.83
2018-03-03T22:12:37.969Z,72.50
2018-03-03T22:15:07.043Z,111.17
2018-03-03T22:17:36.265Z,98.83
2018-03-03T22:20:05.258Z,93.13
2018-03-03T22:22:35.272Z,78.23
2018-03-03T22:25:03.598Z,89.00
2018-03-03T22:27:33.092Z,92.90
2018-03-03T22:30:01.445Z,100.50
2018-03-03T22:32:29.937Z,95.33
2018-03-03T22:34:58.412Z,104.27
2018-03-03T22:37:27.356Z,116.07
2018-03-03T22:39:55.695Z,102.40
2018-03-03T22:42:24.012Z,89.13
2018-03-03T22:44:52.221Z,93.30
2018-03-03T22:47:21.544Z,114.27
2018-03-03T22:49:50.012Z,118.87
2018-03-03T22:52:18.577Z,119.17
2018-03-03T22:54:47.112Z,121.23
2018-03-03T22:57:15.948Z,126.80
2018-03-03T22:59:44.861Z,111.93
2018-03-03T23:02:14.398Z,110.10
2018-03-03T23:04:43.185Z,131.03
2018-03-03T23:07:11.492Z,133.40
2018-03-03T23:09:39.777Z,115.67
2018-03-03T23:12:08.093Z,125.60
2018-03-03T23:14:36.333Z,106.23
2018-03-03T23:17:04.939Z,124.13
2018-03-03T23:19:33.576Z,119.17
2018-03-03T23:22:02.111Z,135.97
2018-03-03T23:24:30.428Z,109.37
2018-03-03T23:26:58.733Z,140.33
2018-03-03T23:29:27.100Z,157.43
2018-03-03T23:31:55.548Z,163.27
2018-03-03T23:34:24.128Z,162.83
2018-03-03T23:36:52.438Z,154.07
2018-03-03T23:39:20.886Z,166.00
2018-03-03T23:41:49.206Z,147.23
2018-03-03T23:44:17.328Z,159.33
2018-03-03T23:46:45.444Z,139.93
2018-03-03T23:49:13.830Z,139.20
2018-03-03T23:51:42.260Z,125.70
2018-03-03T23:54:10.601Z,125.30
2018-03-03T23:56:39.416Z,128.60
2018-03-03T23:59:08.024Z,126.70
